sensor_id;sensor_type;location;lat;lon;timestamp;P1;durP1;ratioP1;P2;durP2;ratioP2
28848;SDS011;15981;43.292;-2.888;2022-10-22T00:00:22;1.17;;;0.70;;
28848;SDS011;15981;43.292;-2.888;2022-10-22T00:02:48;1.55;;;0.73;;
28848;SDS011;15981;43.292;-2.888;2022-10-22T00:05:13;1.92;;;0.90;;
28848;SDS011;15981;43.292;-2.888;2022-10-22T00:07:39;1.13;;;0.68;;
28848;SDS011;15981;43.292;-2.888;2022-10-22T00:10:06;1.00;;;0.60;;
28848;SDS011;15981;43.292;-2.888;2022-10-22T00:12:32;1.55;;;0.95;;
28848;SDS011;15981;43.292;-2.888;2022-10-22T00:14:57;3.33;;;0.90;;
28848;SDS011;15981;43.292;-2.888;2022-10-22T00:17:23;1.73;;;0.65;;
28848;SDS011;15981;43.292;-2.888;2022-10-22T00:19:49;1.33;;;0.50;;
28848;SDS011;15981;43.292;-2.888;2022-10-22T00:22:14;0.95;;;0.60;;
28848;SDS011;15981;43.292;-2.888;2022-10-22T00:24:40;2.10;;;0.80;;
28848;SDS011;15981;43.292;-2.888;2022-10-22T00:27:07;1.48;;;0.90;;
28848;SDS011;15981;43.292;-2.888;2022-10-22T00:29:33;0.88;;;0.50;;
28848;SDS011;15981;43.292;-2.888;2022-10-22T00:31:59;2.13;;;0.73;;
28848;SDS011;15981;43.292;-2.888;2022-10-22T00:34:25;3.47;;;0.93;;
28848;SDS011;15981;43.292;-2.888;2022-10-22T00:36:51;1.58;;;0.80;;
28848;SDS011;15981;43.292;-2.888;2022-10-22T00:39:18;2.67;;;0.88;;
28848;SDS011;15981;43.292;-2.888;2022-10-22T00:41:45;2.47;;;0.90;;
28848;SDS011;15981;43.292;-2.888;2022-10-22T00:46:55;1.48;;;0.80;;
28848;SDS011;15981;43.292;-2.888;2022-10-22T00:49:21;1.48;;;0.70;;
28848;SDS011;15981;43.292;-2.888;2022-10-22T00:51:46;2.60;;;0.88;;
28848;SDS011;15981;43.292;-2.888;2022-10-22T00:54:12;2.92;;;1.10;;
28848;SDS011;15981;43.292;-2.888;2022-10-22T00:56:38;1.50;;;0.77;;
28848;SDS011;15981;43.292;-2.888;2022-10-22T00:59:03;2.20;;;0.80;;
28848;SDS011;15981;43.292;-2.888;2022-10-22T01:01:30;1.65;;;0.90;;
28848;SDS011;15981;43.292;-2.888;2022-10-22T01:03:56;1.13;;;0.80;;
28848;SDS011;15981;43.292;-2.888;2022-10-22T01:19:21;1.95;;;0.80;;
28848;SDS011;15981;43.292;-2.888;2022-10-22T01:21:55;1.10;;;0.70;;
28848;SDS011;15981;43.292;-2.888;2022-10-22T01:27:19;1.27;;;0.85;;
28848;SDS011;15981;43.292;-2.888;2022-10-22T01:29:52;1.17;;;0.80;;
28848;SDS011;15981;43.292;-2.888;2022-10-22T01:32:21;2.08;;;0.90;;
28848;SDS011;15981;43.292;-2.888;2022-10-22T01:34:49;1.65;;;0.70;;
28848;SDS011;15981;43.292;-2.888;2022-10-22T01:37:15;0.73;;;0.73;;
28848;SDS011;15981;43.292;-2.888;2022-10-22T01:39:42;1.10;;;0.80;;
28848;SDS011;15981;43.292;-2.888;2022-10-22T01:42:11;1.67;;;0.90;;
28848;SDS011;15981;43.292;-2.888;2022-10-22T01:44:37;1.05;;;0.80;;
28848;SDS011;15981;43.292;-2.888;2022-10-22T01:49:44;1.25;;;0.77;;
28848;SDS011;15981;43.292;-2.888;2022-10-22T01:55:01;1.85;;;0.90;;
28848;SDS011;15981;43.292;-2.888;2022-10-22T02:00:16;2.53;;;0.75;;
28848;SDS011;15981;43.292;-2.888;2022-10-22T02:05:12;0.98;;;0.80;;
28848;SDS011;15981;43.292;-2.888;2022-10-22T02:07:44;1.88;;;0.77;;
28848;SDS011;15981;43.292;-2.888;2022-10-22T02:10:11;2.63;;;0.93;;
28848;SDS011;15981;43.292;-2.888;2022-10-22T02:12:37;3.15;;;1.00;;
28848;SDS011;15981;43.292;-2.888;2022-10-22T02:15:04;3.10;;;1.05;;
28848;SDS011;15981;43.292;-2.888;2022-10-22T02:17:30;2.03;;;0.90;;
28848;SDS011;15981;43.292;-2.888;2022-10-22T02:19:59;1.58;;;0.80;;
28848;SDS011;15981;43.292;-2.888;2022-10-22T02:22:25;1.10;;;0.70;;
28848;SDS011;15981;43.292;-2.888;2022-10-22T02:24:52;1.25;;;0.88;;
28848;SDS011;15981;43.292;-2.888;2022-10-22T02:27:22;3.15;;;0.90;;
28848;SDS011;15981;43.292;-2.888;2022-10-22T02:35:10;2.38;;;0.90;;
28848;SDS011;15981;43.292;-2.888;2022-10-22T02:37:38;2.58;;;1.00;;
28848;SDS011;15981;43.292;-2.888;2022-10-22T02:40:04;2.20;;;1.00;;
28848;SDS011;15981;43.292;-2.888;2022-10-22T02:42:30;1.98;;;0.90;;
28848;SDS011;15981;43.292;-2.888;2022-10-22T02:44:56;2.13;;;1.00;;
28848;SDS011;15981;43.292;-2.888;2022-10-22T02:47:22;2.33;;;0.90;;
28848;SDS011;15981;43.292;-2.888;2022-10-22T02:49:48;1.10;;;0.90;;
28848;SDS011;15981;43.292;-2.888;2022-10-22T02:52:13;2.72;;;1.00;;
28848;SDS011;15981;43.292;-2.888;2022-10-22T02:54:39;3.42;;;1.20;;
28848;SDS011;15981;43.292;-2.888;2022-10-22T02:57:05;2.85;;;1.00;;
28848;SDS011;15981;43.292;-2.888;2022-10-22T02:59:30;1.00;;;0.90;;
28848;SDS011;15981;43.292;-2.888;2022-10-22T03:01:56;2.60;;;1.08;;
28848;SDS011;15981;43.292;-2.888;2022-10-22T03:04:22;1.70;;;0.90;;
28848;SDS011;15981;43.292;-2.888;2022-10-22T03:06:48;3.78;;;1.00;;
28848;SDS011;15981;43.292;-2.888;2022-10-22T03:09:14;2.78;;;1.00;;
28848;SDS011;15981;43.292;-2.888;2022-10-22T03:11:39;1.73;;;1.02;;
28848;SDS011;15981;43.292;-2.888;2022-10-22T03:14:05;2.58;;;0.95;;
28848;SDS011;15981;43.292;-2.888;2022-10-22T03:16:31;1.55;;;0.88;;
28848;SDS011;15981;43.292;-2.888;2022-10-22T03:18:56;1.58;;;0.85;;
28848;SDS011;15981;43.292;-2.888;2022-10-22T03:23:57;3.13;;;1.20;;
28848;SDS011;15981;43.292;-2.888;2022-10-22T03:26:24;3.53;;;1.10;;
28848;SDS011;15981;43.292;-2.888;2022-10-22T03:28:49;2.10;;;1.02;;
28848;SDS011;15981;43.292;-2.888;2022-10-22T03:31:15;2.10;;;1.30;;
28848;SDS011;15981;43.292;-2.888;2022-10-22T03:33:41;2.97;;;1.10;;
28848;SDS011;15981;43.292;-2.888;2022-10-22T03:36:07;2.53;;;1.02;;
28848;SDS011;15981;43.292;-2.888;2022-10-22T03:41:02;2.10;;;1.27;;
28848;SDS011;15981;43.292;-2.888;2022-10-22T03:43:28;1.98;;;1.30;;
28848;SDS011;15981;43.292;-2.888;2022-10-22T03:45:54;2.35;;;1.30;;
28848;SDS011;15981;43.292;-2.888;2022-10-22T03:48:19;1.85;;;1.20;;
28848;SDS011;15981;43.292;-2.888;2022-10-22T03:50:45;3.05;;;1.33;;
28848;SDS011;15981;43.292;-2.888;2022-10-22T03:53:11;2.20;;;1.30;;
28848;SDS011;15981;43.292;-2.888;2022-10-22T03:55:37;3.00;;;1.30;;
28848;SDS011;15981;43.292;-2.888;2022-10-22T03:58:03;3.60;;;1.50;;
28848;SDS011;15981;43.292;-2.888;2022-10-22T04:00:29;1.90;;;1.10;;
28848;SDS011;15981;43.292;-2.888;2022-10-22T04:02:55;2.42;;;1.10;;
28848;SDS011;15981;43.292;-2.888;2022-10-22T04:05:20;2.03;;;1.25;;
28848;SDS011;15981;43.292;-2.888;2022-10-22T04:07:46;1.80;;;1.30;;
28848;SDS011;15981;43.292;-2.888;2022-10-22T04:10:12;1.77;;;1.13;;
28848;SDS011;15981;43.292;-2.888;2022-10-22T04:12:37;4.03;;;1.30;;
28848;SDS011;15981;43.292;-2.888;2022-10-22T04:15:04;1.25;;;1.00;;
28848;SDS011;15981;43.292;-2.888;2022-10-22T04:17:36;2.80;;;1.30;;
28848;SDS011;15981;43.292;-2.888;2022-10-22T04:20:02;3.88;;;0.88;;
28848;SDS011;15981;43.292;-2.888;2022-10-22T04:22:28;3.20;;;0.88;;
28848;SDS011;15981;43.292;-2.888;2022-10-22T04:24:54;1.58;;;0.82;;
28848;SDS011;15981;43.292;-2.888;2022-10-22T04:27:20;2.75;;;0.98;;
28848;SDS011;15981;43.292;-2.888;2022-10-22T04:29:45;1.80;;;1.10;;
28848;SDS011;15981;43.292;-2.888;2022-10-22T04:32:11;2.42;;;1.05;;
28848;SDS011;15981;43.292;-2.888;2022-10-22T04:34:37;3.05;;;1.17;;
28848;SDS011;15981;43.292;-2.888;2022-10-22T04:37:02;2.33;;;0.95;;
28848;SDS011;15981;43.292;-2.888;2022-10-22T04:39:29;2.85;;;1.10;;
28848;SDS011;15981;43.292;-2.888;2022-10-22T04:41:55;1.42;;;0.77;;
28848;SDS011;15981;43.292;-2.888;2022-10-22T04:44:20;1.95;;;1.10;;
28848;SDS011;15981;43.292;-2.888;2022-10-22T04:46:46;2.80;;;0.90;;
28848;SDS011;15981;43.292;-2.888;2022-10-22T04:49:12;1.67;;;0.80;;
28848;SDS011;15981;43.292;-2.888;2022-10-22T04:51:37;2.13;;;0.90;;
28848;SDS011;15981;43.292;-2.888;2022-10-22T04:54:03;2.83;;;0.85;;
28848;SDS011;15981;43.292;-2.888;2022-10-22T04:56:30;2.55;;;0.90;;
28848;SDS011;15981;43.292;-2.888;2022-10-22T04:58:57;1.92;;;0.98;;
28848;SDS011;15981;43.292;-2.888;2022-10-22T05:01:24;1.65;;;0.73;;
28848;SDS011;15981;43.292;-2.888;2022-10-22T05:03:50;1.42;;;0.60;;
28848;SDS011;15981;43.292;-2.888;2022-10-22T05:06:16;1.42;;;1.00;;
28848;SDS011;15981;43.292;-2.888;2022-10-22T05:08:42;3.05;;;1.00;;
28848;SDS011;15981;43.292;-2.888;2022-10-22T05:11:17;1.85;;;0.70;;
28848;SDS011;15981;43.292;-2.888;2022-10-22T05:13:43;2.35;;;1.00;;
28848;SDS011;15981;43.292;-2.888;2022-10-22T05:16:09;1.52;;;0.80;;
28848;SDS011;15981;43.292;-2.888;2022-10-22T05:18:36;1.13;;;0.75;;
28848;SDS011;15981;43.292;-2.888;2022-10-22T05:21:02;1.40;;;0.65;;
28848;SDS011;15981;43.292;-2.888;2022-10-22T05:23:28;1.42;;;1.00;;
28848;SDS011;15981;43.292;-2.888;2022-10-22T05:25:54;1.48;;;0.60;;
28848;SDS011;15981;43.292;-2.888;2022-10-22T05:28:20;3.25;;;0.98;;
28848;SDS011;15981;43.292;-2.888;2022-10-22T05:30:52;2.00;;;1.02;;
28848;SDS011;15981;43.292;-2.888;2022-10-22T05:33:18;3.75;;;0.85;;
28848;SDS011;15981;43.292;-2.888;2022-10-22T05:35:44;2.75;;;0.90;;
28848;SDS011;15981;43.292;-2.888;2022-10-22T05:38:09;2.40;;;1.00;;
28848;SDS011;15981;43.292;-2.888;2022-10-22T05:40:35;2.67;;;0.73;;
28848;SDS011;15981;43.292;-2.888;2022-10-22T05:43:01;1.05;;;0.80;;
28848;SDS011;15981;43.292;-2.888;2022-10-22T05:45:27;3.42;;;0.98;;
28848;SDS011;15981;43.292;-2.888;2022-10-22T05:47:52;2.25;;;0.70;;
28848;SDS011;15981;43.292;-2.888;2022-10-22T05:50:18;2.05;;;0.93;;
28848;SDS011;15981;43.292;-2.888;2022-10-22T05:52:44;5.10;;;1.20;;
28848;SDS011;15981;43.292;-2.888;2022-10-22T05:55:09;0.90;;;0.77;;
28848;SDS011;15981;43.292;-2.888;2022-10-22T05:57:35;1.23;;;0.90;;
28848;SDS011;15981;43.292;-2.888;2022-10-22T06:00:01;3.95;;;0.77;;
28848;SDS011;15981;43.292;-2.888;2022-10-22T06:02:26;4.45;;;1.08;;
28848;SDS011;15981;43.292;-2.888;2022-10-22T06:04:52;2.58;;;0.80;;
28848;SDS011;15981;43.292;-2.888;2022-10-22T06:07:18;4.70;;;0.85;;
28848;SDS011;15981;43.292;-2.888;2022-10-22T06:09:43;1.38;;;0.77;;
28848;SDS011;15981;43.292;-2.888;2022-10-22T06:12:09;2.38;;;0.90;;
28848;SDS011;15981;43.292;-2.888;2022-10-22T06:14:38;2.72;;;1.42;;
28848;SDS011;15981;43.292;-2.888;2022-10-22T06:17:03;1.83;;;0.75;;
28848;SDS011;15981;43.292;-2.888;2022-10-22T06:19:29;2.00;;;0.60;;
28848;SDS011;15981;43.292;-2.888;2022-10-22T06:21:55;2.67;;;1.05;;
28848;SDS011;15981;43.292;-2.888;2022-10-22T06:24:21;1.13;;;0.80;;
28848;SDS011;15981;43.292;-2.888;2022-10-22T06:26:50;1.90;;;1.05;;
28848;SDS011;15981;43.292;-2.888;2022-10-22T06:29:16;2.58;;;1.02;;
28848;SDS011;15981;43.292;-2.888;2022-10-22T06:31:41;3.20;;;1.00;;
28848;SDS011;15981;43.292;-2.888;2022-10-22T06:34:09;3.28;;;1.38;;
28848;SDS011;15981;43.292;-2.888;2022-10-22T06:36:35;5.80;;;2.15;;
28848;SDS011;15981;43.292;-2.888;2022-10-22T06:39:01;5.43;;;1.83;;
28848;SDS011;15981;43.292;-2.888;2022-10-22T06:41:27;7.20;;;1.80;;
28848;SDS011;15981;43.292;-2.888;2022-10-22T06:43:53;3.60;;;1.63;;
28848;SDS011;15981;43.292;-2.888;2022-10-22T06:46:19;2.97;;;1.30;;
28848;SDS011;15981;43.292;-2.888;2022-10-22T06:48:49;2.85;;;1.52;;
28848;SDS011;15981;43.292;-2.888;2022-10-22T06:51:15;2.35;;;1.15;;
28848;SDS011;15981;43.292;-2.888;2022-10-22T06:53:41;3.17;;;1.20;;
28848;SDS011;15981;43.292;-2.888;2022-10-22T06:56:07;4.05;;;1.25;;
28848;SDS011;15981;43.292;-2.888;2022-10-22T06:58:33;3.08;;;1.10;;
28848;SDS011;15981;43.292;-2.888;2022-10-22T07:01:00;2.90;;;1.10;;
28848;SDS011;15981;43.292;-2.888;2022-10-22T07:03:26;2.53;;;1.20;;
28848;SDS011;15981;43.292;-2.888;2022-10-22T07:05:52;2.88;;;0.88;;
28848;SDS011;15981;43.292;-2.888;2022-10-22T07:08:18;3.83;;;1.48;;
28848;SDS011;15981;43.292;-2.888;2022-10-22T07:10:43;3.30;;;1.20;;
28848;SDS011;15981;43.292;-2.888;2022-10-22T07:13:09;1.65;;;1.17;;
28848;SDS011;15981;43.292;-2.888;2022-10-22T07:15:35;3.40;;;1.25;;
28848;SDS011;15981;43.292;-2.888;2022-10-22T07:18:00;1.70;;;1.20;;
28848;SDS011;15981;43.292;-2.888;2022-10-22T07:20:29;2.03;;;1.25;;
28848;SDS011;15981;43.292;-2.888;2022-10-22T07:22:54;2.40;;;1.00;;
28848;SDS011;15981;43.292;-2.888;2022-10-22T07:25:20;3.40;;;1.00;;
28848;SDS011;15981;43.292;-2.888;2022-10-22T07:27:46;3.22;;;1.00;;
28848;SDS011;15981;43.292;-2.888;2022-10-22T07:30:11;2.40;;;1.25;;
28848;SDS011;15981;43.292;-2.888;2022-10-22T07:32:37;2.70;;;1.10;;
28848;SDS011;15981;43.292;-2.888;2022-10-22T07:35:03;2.67;;;0.90;;
28848;SDS011;15981;43.292;-2.888;2022-10-22T07:37:29;1.33;;;0.60;;
28848;SDS011;15981;43.292;-2.888;2022-10-22T07:39:54;1.65;;;0.98;;
28848;SDS011;15981;43.292;-2.888;2022-10-22T07:42:20;1.67;;;0.90;;
28848;SDS011;15981;43.292;-2.888;2022-10-22T07:44:46;2.28;;;0.80;;
28848;SDS011;15981;43.292;-2.888;2022-10-22T07:47:11;1.58;;;0.90;;
28848;SDS011;15981;43.292;-2.888;2022-10-22T07:49:37;1.85;;;0.80;;
28848;SDS011;15981;43.292;-2.888;2022-10-22T07:52:03;1.02;;;0.80;;
28848;SDS011;15981;43.292;-2.888;2022-10-22T07:54:29;2.47;;;0.90;;
28848;SDS011;15981;43.292;-2.888;2022-10-22T07:56:54;1.65;;;0.73;;
28848;SDS011;15981;43.292;-2.888;2022-10-22T07:59:20;3.00;;;0.90;;
28848;SDS011;15981;43.292;-2.888;2022-10-22T08:01:46;2.20;;;1.02;;
28848;SDS011;15981;43.292;-2.888;2022-10-22T08:04:12;2.58;;;0.65;;
28848;SDS011;15981;43.292;-2.888;2022-10-22T08:06:37;3.30;;;0.90;;
28848;SDS011;15981;43.292;-2.888;2022-10-22T08:09:04;2.67;;;0.70;;
28848;SDS011;15981;43.292;-2.888;2022-10-22T08:11:29;1.80;;;0.60;;
28848;SDS011;15981;43.292;-2.888;2022-10-22T08:13:58;1.98;;;0.80;;
28848;SDS011;15981;43.292;-2.888;2022-10-22T08:16:24;2.53;;;0.77;;
28848;SDS011;15981;43.292;-2.888;2022-10-22T08:18:49;1.35;;;0.70;;
28848;SDS011;15981;43.292;-2.888;2022-10-22T08:21:15;1.85;;;0.70;;
28848;SDS011;15981;43.292;-2.888;2022-10-22T08:23:42;1.08;;;0.50;;
28848;SDS011;15981;43.292;-2.888;2022-10-22T08:26:08;1.63;;;0.73;;
28848;SDS011;15981;43.292;-2.888;2022-10-22T08:28:34;1.73;;;0.70;;
28848;SDS011;15981;43.292;-2.888;2022-10-22T08:31:05;1.95;;;0.80;;
28848;SDS011;15981;43.292;-2.888;2022-10-22T08:33:32;2.35;;;0.80;;
28848;SDS011;15981;43.292;-2.888;2022-10-22T08:35:58;1.40;;;0.82;;
28848;SDS011;15981;43.292;-2.888;2022-10-22T08:38:23;1.75;;;0.80;;
28848;SDS011;15981;43.292;-2.888;2022-10-22T08:40:53;1.27;;;0.50;;
28848;SDS011;15981;43.292;-2.888;2022-10-22T08:51:19;2.00;;;1.17;;
28848;SDS011;15981;43.292;-2.888;2022-10-22T08:54:05;2.33;;;1.23;;
28848;SDS011;15981;43.292;-2.888;2022-10-22T08:56:34;20.38;;;13.73;;
28848;SDS011;15981;43.292;-2.888;2022-10-22T09:01:38;97.78;;;64.40;;
28848;SDS011;15981;43.292;-2.888;2022-10-22T09:04:09;111.45;;;79.28;;
28848;SDS011;15981;43.292;-2.888;2022-10-22T09:06:36;124.78;;;88.80;;
28848;SDS011;15981;43.292;-2.888;2022-10-22T09:09:08;107.45;;;78.85;;
28848;SDS011;15981;43.292;-2.888;2022-10-22T09:11:36;99.05;;;70.40;;
28848;SDS011;15981;43.292;-2.888;2022-10-22T09:14:03;78.25;;;56.17;;
28848;SDS011;15981;43.292;-2.888;2022-10-22T09:24:27;38.45;;;25.83;;
28848;SDS011;15981;43.292;-2.888;2022-10-22T09:26:54;36.28;;;22.85;;
28848;SDS011;15981;43.292;-2.888;2022-10-22T09:29:22;23.63;;;16.48;;
28848;SDS011;15981;43.292;-2.888;2022-10-22T09:31:49;22.52;;;15.32;;
28848;SDS011;15981;43.292;-2.888;2022-10-22T09:34:16;19.30;;;13.57;;
28848;SDS011;15981;43.292;-2.888;2022-10-22T09:36:43;15.95;;;11.40;;
28848;SDS011;15981;43.292;-2.888;2022-10-22T09:39:23;14.93;;;9.43;;
28848;SDS011;15981;43.292;-2.888;2022-10-22T09:41:49;14.95;;;8.95;;
28848;SDS011;15981;43.292;-2.888;2022-10-22T09:44:16;12.43;;;6.90;;
28848;SDS011;15981;43.292;-2.888;2022-10-22T09:46:42;14.18;;;6.13;;
28848;SDS011;15981;43.292;-2.888;2022-10-22T09:49:13;14.15;;;6.63;;
28848;SDS011;15981;43.292;-2.888;2022-10-22T09:51:56;7.95;;;5.28;;
28848;SDS011;15981;43.292;-2.888;2022-10-22T09:59:26;5.05;;;3.28;;
28848;SDS011;15981;43.292;-2.888;2022-10-22T10:02:01;6.70;;;3.38;;
28848;SDS011;15981;43.292;-2.888;2022-10-22T10:04:27;4.30;;;3.22;;
28848;SDS011;15981;43.292;-2.888;2022-10-22T10:06:53;6.88;;;2.92;;
28848;SDS011;15981;43.292;-2.888;2022-10-22T10:09:22;3.22;;;2.60;;
28848;SDS011;15981;43.292;-2.888;2022-10-22T10:11:51;4.32;;;2.70;;
28848;SDS011;15981;43.292;-2.888;2022-10-22T10:17:25;3.58;;;2.25;;
28848;SDS011;15981;43.292;-2.888;2022-10-22T10:22:25;2.40;;;1.70;;
28848;SDS011;15981;43.292;-2.888;2022-10-22T10:27:40;6.95;;;1.95;;
28848;SDS011;15981;43.292;-2.888;2022-10-22T10:30:12;3.85;;;1.80;;
28848;SDS011;15981;43.292;-2.888;2022-10-22T10:37:45;0.60;;;0.52;;
28848;SDS011;15981;43.292;-2.888;2022-10-22T10:42:43;0.63;;;0.60;;
28848;SDS011;15981;43.292;-2.888;2022-10-22T10:45:19;1.52;;;0.50;;
28848;SDS011;15981;43.292;-2.888;2022-10-22T10:50:34;0.85;;;0.50;;
28848;SDS011;15981;43.292;-2.888;2022-10-22T10:55:48;0.70;;;0.43;;
28848;SDS011;15981;43.292;-2.888;2022-10-22T11:00:53;0.40;;;0.30;;
28848;SDS011;15981;43.292;-2.888;2022-10-22T11:03:33;0.77;;;0.40;;
28848;SDS011;15981;43.292;-2.888;2022-10-22T11:06:08;0.40;;;0.35;;
28848;SDS011;15981;43.292;-2.888;2022-10-22T11:08:36;0.50;;;0.30;;
28848;SDS011;15981;43.292;-2.888;2022-10-22T11:11:17;0.30;;;0.30;;
28848;SDS011;15981;43.292;-2.888;2022-10-22T11:13:51;0.25;;;0.17;;
28848;SDS011;15981;43.292;-2.888;2022-10-22T11:16:41;0.73;;;0.20;;
28848;SDS011;15981;43.292;-2.888;2022-10-22T11:19:22;0.85;;;0.40;;
28848;SDS011;15981;43.292;-2.888;2022-10-22T11:21:54;0.82;;;0.40;;
28848;SDS011;15981;43.292;-2.888;2022-10-22T11:24:27;0.60;;;0.50;;
28848;SDS011;15981;43.292;-2.888;2022-10-22T11:27:06;1.17;;;0.52;;
28848;SDS011;15981;43.292;-2.888;2022-10-22T11:29:36;0.93;;;0.60;;
28848;SDS011;15981;43.292;-2.888;2022-10-22T11:32:03;3.78;;;0.55;;
28848;SDS011;15981;43.292;-2.888;2022-10-22T11:34:35;0.68;;;0.50;;
28848;SDS011;15981;43.292;-2.888;2022-10-22T11:37:03;4.63;;;0.90;;
28848;SDS011;15981;43.292;-2.888;2022-10-22T11:39:38;1.77;;;0.60;;
28848;SDS011;15981;43.292;-2.888;2022-10-22T11:42:05;2.00;;;0.77;;
28848;SDS011;15981;43.292;-2.888;2022-10-22T11:44:44;1.40;;;0.70;;
28848;SDS011;15981;43.292;-2.888;2022-10-22T11:47:31;0.90;;;0.70;;
28848;SDS011;15981;43.292;-2.888;2022-10-22T11:49:58;2.08;;;0.70;;
28848;SDS011;15981;43.292;-2.888;2022-10-22T11:54:53;1.08;;;0.60;;
28848;SDS011;15981;43.292;-2.888;2022-10-22T11:57:20;1.10;;;0.60;;
28848;SDS011;15981;43.292;-2.888;2022-10-22T11:59:49;1.52;;;0.73;;
28848;SDS011;15981;43.292;-2.888;2022-10-22T12:04:47;1.35;;;0.57;;
28848;SDS011;15981;43.292;-2.888;2022-10-22T12:07:30;0.70;;;0.50;;
28848;SDS011;15981;43.292;-2.888;2022-10-22T12:09:56;2.70;;;0.60;;
28848;SDS011;15981;43.292;-2.888;2022-10-22T12:12:22;0.47;;;0.43;;
28848;SDS011;15981;43.292;-2.888;2022-10-22T12:14:57;1.40;;;0.50;;
28848;SDS011;15981;43.292;-2.888;2022-10-22T12:17:24;1.05;;;0.47;;
28848;SDS011;15981;43.292;-2.888;2022-10-22T12:19:54;0.50;;;0.47;;
28848;SDS011;15981;43.292;-2.888;2022-10-22T12:22:28;1.00;;;0.55;;
28848;SDS011;15981;43.292;-2.888;2022-10-22T12:24:55;1.90;;;0.80;;
28848;SDS011;15981;43.292;-2.888;2022-10-22T12:27:48;2.28;;;0.77;;
28848;SDS011;15981;43.292;-2.888;2022-10-22T12:30:52;1.08;;;0.85;;
28848;SDS011;15981;43.292;-2.888;2022-10-22T12:33:02;0.93;;;0.80;;
28848;SDS011;15981;43.292;-2.888;2022-10-22T12:35:29;1.45;;;1.20;;
28848;SDS011;15981;43.292;-2.888;2022-10-22T12:37:57;1.13;;;0.98;;
28848;SDS011;15981;43.292;-2.888;2022-10-22T12:40:24;1.40;;;1.30;;
28848;SDS011;15981;43.292;-2.888;2022-10-22T12:42:52;2.28;;;0.93;;
28848;SDS011;15981;43.292;-2.888;2022-10-22T12:45:18;1.70;;;1.15;;
28848;SDS011;15981;43.292;-2.888;2022-10-22T12:47:47;1.65;;;1.35;;
28848;SDS011;15981;43.292;-2.888;2022-10-22T12:50:20;3.05;;;1.95;;
28848;SDS011;15981;43.292;-2.888;2022-10-22T12:52:47;1.58;;;1.38;;
28848;SDS011;15981;43.292;-2.888;2022-10-22T12:55:14;3.95;;;1.70;;
28848;SDS011;15981;43.292;-2.888;2022-10-22T12:57:41;2.35;;;1.50;;
28848;SDS011;15981;43.292;-2.888;2022-10-22T13:00:18;1.58;;;1.30;;
28848;SDS011;15981;43.292;-2.888;2022-10-22T13:02:43;1.65;;;1.25;;
28848;SDS011;15981;43.292;-2.888;2022-10-22T13:05:14;2.50;;;1.42;;
28848;SDS011;15981;43.292;-2.888;2022-10-22T13:07:41;1.40;;;1.30;;
28848;SDS011;15981;43.292;-2.888;2022-10-22T13:10:16;4.40;;;2.92;;
28848;SDS011;15981;43.292;-2.888;2022-10-22T13:12:43;3.25;;;2.50;;
28848;SDS011;15981;43.292;-2.888;2022-10-22T13:15:19;1.98;;;1.45;;
28848;SDS011;15981;43.292;-2.888;2022-10-22T13:17:45;1.67;;;1.30;;
28848;SDS011;15981;43.292;-2.888;2022-10-22T13:20:21;6.30;;;3.67;;
28848;SDS011;15981;43.292;-2.888;2022-10-22T13:22:54;3.90;;;2.78;;
28848;SDS011;15981;43.292;-2.888;2022-10-22T13:25:24;3.60;;;2.47;;
28848;SDS011;15981;43.292;-2.888;2022-10-22T13:30:23;3.70;;;3.00;;
28848;SDS011;15981;43.292;-2.888;2022-10-22T13:33:02;1.45;;;1.30;;
28848;SDS011;15981;43.292;-2.888;2022-10-22T13:35:29;2.00;;;1.40;;
28848;SDS011;15981;43.292;-2.888;2022-10-22T13:37:57;1.73;;;1.33;;
28848;SDS011;15981;43.292;-2.888;2022-10-22T13:40:23;2.25;;;1.80;;
28848;SDS011;15981;43.292;-2.888;2022-10-22T13:42:48;2.33;;;1.70;;
28848;SDS011;15981;43.292;-2.888;2022-10-22T13:45:14;1.90;;;1.23;;
28848;SDS011;15981;43.292;-2.888;2022-10-22T13:47:40;2.03;;;1.73;;
28848;SDS011;15981;43.292;-2.888;2022-10-22T13:50:14;2.20;;;1.80;;
28848;SDS011;15981;43.292;-2.888;2022-10-22T13:52:48;1.15;;;0.82;;
28848;SDS011;15981;43.292;-2.888;2022-10-22T13:55:16;1.35;;;0.80;;
28848;SDS011;15981;43.292;-2.888;2022-10-22T13:57:42;0.93;;;0.75;;
28848;SDS011;15981;43.292;-2.888;2022-10-22T14:00:12;0.70;;;0.50;;
28848;SDS011;15981;43.292;-2.888;2022-10-22T14:02:38;0.85;;;0.40;;
28848;SDS011;15981;43.292;-2.888;2022-10-22T14:05:04;1.35;;;0.40;;
28848;SDS011;15981;43.292;-2.888;2022-10-22T14:07:34;0.60;;;0.55;;
28848;SDS011;15981;43.292;-2.888;2022-10-22T14:10:00;0.65;;;0.30;;
28848;SDS011;15981;43.292;-2.888;2022-10-22T14:12:26;0.70;;;0.40;;
28848;SDS011;15981;43.292;-2.888;2022-10-22T14:14:53;0.52;;;0.30;;
28848;SDS011;15981;43.292;-2.888;2022-10-22T14:17:18;0.43;;;0.30;;
28848;SDS011;15981;43.292;-2.888;2022-10-22T14:19:45;0.40;;;0.40;;
28848;SDS011;15981;43.292;-2.888;2022-10-22T14:22:12;0.47;;;0.47;;
28848;SDS011;15981;43.292;-2.888;2022-10-22T14:24:38;0.45;;;0.30;;
28848;SDS011;15981;43.292;-2.888;2022-10-22T14:27:04;0.40;;;0.32;;
28848;SDS011;15981;43.292;-2.888;2022-10-22T14:29:29;0.80;;;0.30;;
28848;SDS011;15981;43.292;-2.888;2022-10-22T14:31:55;0.30;;;0.30;;
28848;SDS011;15981;43.292;-2.888;2022-10-22T14:34:21;0.20;;;0.20;;
28848;SDS011;15981;43.292;-2.888;2022-10-22T14:36:46;0.55;;;0.30;;
28848;SDS011;15981;43.292;-2.888;2022-10-22T14:39:12;0.30;;;0.30;;
28848;SDS011;15981;43.292;-2.888;2022-10-22T14:41:38;0.38;;;0.20;;
28848;SDS011;15981;43.292;-2.888;2022-10-22T14:44:05;0.50;;;0.35;;
28848;SDS011;15981;43.292;-2.888;2022-10-22T14:46:31;0.25;;;0.20;;
28848;SDS011;15981;43.292;-2.888;2022-10-22T14:48:56;0.20;;;0.20;;
28848;SDS011;15981;43.292;-2.888;2022-10-22T14:51:22;0.73;;;0.40;;
28848;SDS011;15981;43.292;-2.888;2022-10-22T14:53:48;0.20;;;0.20;;
28848;SDS011;15981;43.292;-2.888;2022-10-22T15:13:12;0.20;;;0.20;;
28848;SDS011;15981;43.292;-2.888;2022-10-22T15:15:40;0.60;;;0.30;;
28848;SDS011;15981;43.292;-2.888;2022-10-22T15:18:06;0.30;;;0.22;;
28848;SDS011;15981;43.292;-2.888;2022-10-22T15:20:32;0.20;;;0.20;;
28848;SDS011;15981;43.292;-2.888;2022-10-22T15:22:57;0.10;;;0.10;;
28848;SDS011;15981;43.292;-2.888;2022-10-22T15:25:23;0.10;;;0.10;;
28848;SDS011;15981;43.292;-2.888;2022-10-22T15:27:49;0.28;;;0.20;;
28848;SDS011;15981;43.292;-2.888;2022-10-22T15:30:15;0.65;;;0.30;;
28848;SDS011;15981;43.292;-2.888;2022-10-22T15:32:40;0.22;;;0.20;;
28848;SDS011;15981;43.292;-2.888;2022-10-22T15:35:06;0.40;;;0.30;;
28848;SDS011;15981;43.292;-2.888;2022-10-22T16:02:05;0.35;;;0.20;;
28848;SDS011;15981;43.292;-2.888;2022-10-22T16:04:31;0.22;;;0.22;;
28848;SDS011;15981;43.292;-2.888;2022-10-22T16:06:57;0.45;;;0.25;;
28848;SDS011;15981;43.292;-2.888;2022-10-22T16:09:25;0.20;;;0.20;;
28848;SDS011;15981;43.292;-2.888;2022-10-22T16:11:51;0.38;;;0.30;;
28848;SDS011;15981;43.292;-2.888;2022-10-22T16:14:18;0.82;;;0.30;;
28848;SDS011;15981;43.292;-2.888;2022-10-22T16:16:45;0.50;;;0.25;;
28848;SDS011;15981;43.292;-2.888;2022-10-22T16:19:12;0.77;;;0.40;;
28848;SDS011;15981;43.292;-2.888;2022-10-22T16:21:38;1.13;;;0.35;;
28848;SDS011;15981;43.292;-2.888;2022-10-22T16:24:05;0.38;;;0.35;;
28848;SDS011;15981;43.292;-2.888;2022-10-22T16:26:31;0.65;;;0.30;;
28848;SDS011;15981;43.292;-2.888;2022-10-22T16:28:56;0.22;;;0.22;;
28848;SDS011;15981;43.292;-2.888;2022-10-22T16:31:22;1.55;;;0.30;;
28848;SDS011;15981;43.292;-2.888;2022-10-22T16:33:48;0.40;;;0.20;;
28848;SDS011;15981;43.292;-2.888;2022-10-22T16:36:15;2.80;;;0.45;;
28848;SDS011;15981;43.292;-2.888;2022-10-22T16:38:42;0.35;;;0.30;;
28848;SDS011;15981;43.292;-2.888;2022-10-22T16:43:34;0.52;;;0.50;;
28848;SDS011;15981;43.292;-2.888;2022-10-22T16:46:00;0.65;;;0.50;;
28848;SDS011;15981;43.292;-2.888;2022-10-22T16:48:25;1.35;;;0.77;;
28848;SDS011;15981;43.292;-2.888;2022-10-22T16:50:51;2.47;;;0.70;;
28848;SDS011;15981;43.292;-2.888;2022-10-22T16:53:17;1.00;;;0.63;;